Jacksonville, Maryland
Current Conditions -  °F | °C
As of 6:45 AM on Saturday 20 Dec 2014 (Local Time) from KMTN Reporting Station
Scattered Clouds Scattered Clouds  
Wind Chill: -6°   Ceiling: Unl
Heat Index: -3°   Visibility: 10mi
Dew Point: -6°   Wind: 5mph
Humidity: 80%   Direction: 280°W
Pressure: 30.31"   Gusts: NA
Location:  39.5027°N, 76.5721°W
Report Text: KMTN 201145Z 28004KT 10SM SCT180 M03/M06 A3031
Loading
Personal Weather Stations






























Interactive Weather Map New forecast layout! Learn more

10-Day Weather Forecast

Advertisements
Track Severe Weather on mobile